sensor_id;sensor_type;location;lat;lon;timestamp;temperature;humidity
52963;DHT22;38827;53.024;6.596;2023-09-19T00:00:22;14.90;83.20
52963;DHT22;38827;53.024;6.596;2023-09-19T00:02:56;14.90;83.50
52963;DHT22;38827;53.024;6.596;2023-09-19T00:05:25;14.80;83.50
52963;DHT22;38827;53.024;6.596;2023-09-19T00:07:53;14.80;83.40
52963;DHT22;38827;53.024;6.596;2023-09-19T00:10:23;14.70;83.50
52963;DHT22;38827;53.024;6.596;2023-09-19T00:12:55;14.70;83.50
52963;DHT22;38827;53.024;6.596;2023-09-19T00:15:22;14.60;83.50
52963;DHT22;38827;53.024;6.596;2023-09-19T00:17:48;14.60;83.60
52963;DHT22;38827;53.024;6.596;2023-09-19T00:23:11;14.50;83.60
52963;DHT22;38827;53.024;6.596;2023-09-19T00:25:37;14.40;83.60
52963;DHT22;38827;53.024;6.596;2023-09-19T00:28:06;14.40;83.50
52963;DHT22;38827;53.024;6.596;2023-09-19T00:30:36;14.30;83.40
52963;DHT22;38827;53.024;6.596;2023-09-19T00:33:04;14.30;83.50
52963;DHT22;38827;53.024;6.596;2023-09-19T00:35:31;14.30;83.60
52963;DHT22;38827;53.024;6.596;2023-09-19T00:37:57;14.30;83.60
52963;DHT22;38827;53.024;6.596;2023-09-19T00:40:23;14.20;83.50
52963;DHT22;38827;53.024;6.596;2023-09-19T00:42:49;14.20;83.50
52963;DHT22;38827;53.024;6.596;2023-09-19T00:45:17;14.10;83.30
52963;DHT22;38827;53.024;6.596;2023-09-19T00:47:51;14.10;83.30
52963;DHT22;38827;53.024;6.596;2023-09-19T00:53:14;14.10;82.90
52963;DHT22;38827;53.024;6.596;2023-09-19T00:55:40;14.10;82.60
52963;DHT22;38827;53.024;6.596;2023-09-19T00:58:08;14.00;82.80
52963;DHT22;38827;53.024;6.596;2023-09-19T01:00:36;14.00;82.50
52963;DHT22;38827;53.024;6.596;2023-09-19T01:03:01;14.00;82.50
52963;DHT22;38827;53.024;6.596;2023-09-19T01:05:27;14.00;82.40
52963;DHT22;38827;53.024;6.596;2023-09-19T01:07:53;14.00;82.30
52963;DHT22;38827;53.024;6.596;2023-09-19T01:10:20;14.00;82.20
52963;DHT22;38827;53.024;6.596;2023-09-19T01:15:49;13.90;82.20
52963;DHT22;38827;53.024;6.596;2023-09-19T01:31:20;13.90;82.70
52963;DHT22;38827;53.024;6.596;2023-09-19T01:34:03;13.80;82.90
52963;DHT22;38827;53.024;6.596;2023-09-19T01:36:35;13.80;82.90
52963;DHT22;38827;53.024;6.596;2023-09-19T01:39:11;13.70;83.10
52963;DHT22;38827;53.024;6.596;2023-09-19T01:41:41;13.70;83.10
52963;DHT22;38827;53.024;6.596;2023-09-19T01:44:24;13.70;83.20
52963;DHT22;38827;53.024;6.596;2023-09-19T01:46:52;13.70;83.20
52963;DHT22;38827;53.024;6.596;2023-09-19T01:49:38;13.70;83.50
52963;DHT22;38827;53.024;6.596;2023-09-19T01:52:12;13.60;83.40
52963;DHT22;38827;53.024;6.596;2023-09-19T01:55:05;13.60;83.60
52963;DHT22;38827;53.024;6.596;2023-09-19T01:57:42;13.60;83.50
52963;DHT22;38827;53.024;6.596;2023-09-19T02:00:12;13.60;83.50
52963;DHT22;38827;53.024;6.596;2023-09-19T02:02:42;13.50;83.60
52963;DHT22;38827;53.024;6.596;2023-09-19T02:05:28;13.50;83.70
52963;DHT22;38827;53.024;6.596;2023-09-19T02:13:12;13.50;83.40
52963;DHT22;38827;53.024;6.596;2023-09-19T02:15:40;13.40;83.40
52963;DHT22;38827;53.024;6.596;2023-09-19T02:18:06;13.40;83.70
52963;DHT22;38827;53.024;6.596;2023-09-19T02:20:32;13.40;83.80
52963;DHT22;38827;53.024;6.596;2023-09-19T02:22:58;13.40;83.90
52963;DHT22;38827;53.024;6.596;2023-09-19T02:25:24;13.30;84.00
52963;DHT22;38827;53.024;6.596;2023-09-19T02:27:52;13.30;84.30
52963;DHT22;38827;53.024;6.596;2023-09-19T02:35:30;13.30;84.30
52963;DHT22;38827;53.024;6.596;2023-09-19T02:38:00;13.30;84.40
52963;DHT22;38827;53.024;6.596;2023-09-19T02:40:26;13.30;84.30
52963;DHT22;38827;53.024;6.596;2023-09-19T02:42:55;13.20;84.20
52963;DHT22;38827;53.024;6.596;2023-09-19T02:45:21;13.20;84.10
52963;DHT22;38827;53.024;6.596;2023-09-19T02:47:49;13.20;84.00
52963;DHT22;38827;53.024;6.596;2023-09-19T02:50:15;13.20;83.80
52963;DHT22;38827;53.024;6.596;2023-09-19T02:52:42;13.20;83.80
52963;DHT22;38827;53.024;6.596;2023-09-19T02:55:15;13.20;83.80
52963;DHT22;38827;53.024;6.596;2023-09-19T02:57:50;13.20;83.80
52963;DHT22;38827;53.024;6.596;2023-09-19T03:00:20;13.20;83.90
52963;DHT22;38827;53.024;6.596;2023-09-19T03:02:49;13.20;84.00
52963;DHT22;38827;53.024;6.596;2023-09-19T03:05:14;13.20;83.90
52963;DHT22;38827;53.024;6.596;2023-09-19T03:07:40;13.20;84.10
52963;DHT22;38827;53.024;6.596;2023-09-19T03:10:08;13.20;84.30
52963;DHT22;38827;53.024;6.596;2023-09-19T03:12:34;13.20;84.20
52963;DHT22;38827;53.024;6.596;2023-09-19T03:15:01;13.20;84.30
52963;DHT22;38827;53.024;6.596;2023-09-19T03:17:26;13.20;84.30
52963;DHT22;38827;53.024;6.596;2023-09-19T03:19:54;13.30;84.20
52963;DHT22;38827;53.024;6.596;2023-09-19T03:22:19;13.30;84.20
52963;DHT22;38827;53.024;6.596;2023-09-19T03:24:46;13.30;84.10
52963;DHT22;38827;53.024;6.596;2023-09-19T03:27:15;13.40;84.00
52963;DHT22;38827;53.024;6.596;2023-09-19T03:29:42;13.40;83.90
52963;DHT22;38827;53.024;6.596;2023-09-19T03:32:08;13.40;83.70
52963;DHT22;38827;53.024;6.596;2023-09-19T03:34:37;13.50;83.70
52963;DHT22;38827;53.024;6.596;2023-09-19T03:37:06;13.50;83.60
52963;DHT22;38827;53.024;6.596;2023-09-19T03:39:32;13.50;83.40
52963;DHT22;38827;53.024;6.596;2023-09-19T03:41:58;13.50;83.40
52963;DHT22;38827;53.024;6.596;2023-09-19T03:44:23;13.40;83.20
52963;DHT22;38827;53.024;6.596;2023-09-19T03:46:49;13.40;83.20
52963;DHT22;38827;53.024;6.596;2023-09-19T03:49:15;13.40;83.20
52963;DHT22;38827;53.024;6.596;2023-09-19T03:51:40;13.40;83.20
52963;DHT22;38827;53.024;6.596;2023-09-19T03:54:08;13.30;83.20
52963;DHT22;38827;53.024;6.596;2023-09-19T03:56:34;13.30;83.20
52963;DHT22;38827;53.024;6.596;2023-09-19T03:59:00;13.30;83.30
52963;DHT22;38827;53.024;6.596;2023-09-19T04:01:25;13.30;83.20
52963;DHT22;38827;53.024;6.596;2023-09-19T04:03:53;13.30;83.40
52963;DHT22;38827;53.024;6.596;2023-09-19T04:06:19;13.20;83.40
52963;DHT22;38827;53.024;6.596;2023-09-19T04:08:45;13.20;83.40
52963;DHT22;38827;53.024;6.596;2023-09-19T04:11:12;13.20;83.40
52963;DHT22;38827;53.024;6.596;2023-09-19T04:13:38;13.30;83.30
52963;DHT22;38827;53.024;6.596;2023-09-19T04:16:04;13.30;83.30
52963;DHT22;38827;53.024;6.596;2023-09-19T04:18:30;13.30;83.20
52963;DHT22;38827;53.024;6.596;2023-09-19T04:21:02;13.40;83.00
52963;DHT22;38827;53.024;6.596;2023-09-19T04:23:33;13.40;83.10
52963;DHT22;38827;53.024;6.596;2023-09-19T04:25:58;13.40;83.00
52963;DHT22;38827;53.024;6.596;2023-09-19T04:28:25;13.40;82.80
52963;DHT22;38827;53.024;6.596;2023-09-19T04:30:50;13.50;82.90
52963;DHT22;38827;53.024;6.596;2023-09-19T04:33:16;13.50;82.90
52963;DHT22;38827;53.024;6.596;2023-09-19T04:35:43;13.60;82.90
52963;DHT22;38827;53.024;6.596;2023-09-19T04:38:09;13.60;83.00
52963;DHT22;38827;53.024;6.596;2023-09-19T04:40:35;13.60;83.00
52963;DHT22;38827;53.024;6.596;2023-09-19T04:43:03;13.60;82.90
52963;DHT22;38827;53.024;6.596;2023-09-19T04:45:29;13.60;83.20
52963;DHT22;38827;53.024;6.596;2023-09-19T04:47:55;13.60;83.30
52963;DHT22;38827;53.024;6.596;2023-09-19T04:50:21;13.70;83.40
52963;DHT22;38827;53.024;6.596;2023-09-19T04:52:51;13.70;83.40
52963;DHT22;38827;53.024;6.596;2023-09-19T04:55:18;13.60;84.00
52963;DHT22;38827;53.024;6.596;2023-09-19T04:57:49;13.60;83.90
52963;DHT22;38827;53.024;6.596;2023-09-19T05:02:56;13.70;84.20
52963;DHT22;38827;53.024;6.596;2023-09-19T05:05:22;13.60;84.50
52963;DHT22;38827;53.024;6.596;2023-09-19T05:07:49;13.60;84.60
52963;DHT22;38827;53.024;6.596;2023-09-19T05:10:16;13.60;84.70
52963;DHT22;38827;53.024;6.596;2023-09-19T05:12:44;13.60;85.00
52963;DHT22;38827;53.024;6.596;2023-09-19T05:15:13;13.60;85.10
52963;DHT22;38827;53.024;6.596;2023-09-19T05:17:48;13.60;85.10
52963;DHT22;38827;53.024;6.596;2023-09-19T05:20:14;13.60;85.10
52963;DHT22;38827;53.024;6.596;2023-09-19T05:22:44;13.60;85.20
52963;DHT22;38827;53.024;6.596;2023-09-19T05:25:11;13.60;85.30
52963;DHT22;38827;53.024;6.596;2023-09-19T05:27:42;13.60;85.40
52963;DHT22;38827;53.024;6.596;2023-09-19T05:30:08;13.60;85.50
52963;DHT22;38827;53.024;6.596;2023-09-19T05:32:34;13.60;85.50
52963;DHT22;38827;53.024;6.596;2023-09-19T05:35:01;13.60;85.50
52963;DHT22;38827;53.024;6.596;2023-09-19T05:37:27;13.60;85.70
52963;DHT22;38827;53.024;6.596;2023-09-19T05:39:52;13.60;85.70
52963;DHT22;38827;53.024;6.596;2023-09-19T05:42:20;13.60;85.60
52963;DHT22;38827;53.024;6.596;2023-09-19T05:44:46;13.60;85.70
52963;DHT22;38827;53.024;6.596;2023-09-19T05:47:12;13.60;85.70
52963;DHT22;38827;53.024;6.596;2023-09-19T05:49:39;13.70;85.60
52963;DHT22;38827;53.024;6.596;2023-09-19T05:52:07;13.70;85.60
52963;DHT22;38827;53.024;6.596;2023-09-19T05:54:33;13.60;85.60
52963;DHT22;38827;53.024;6.596;2023-09-19T05:57:00;13.60;85.70
52963;DHT22;38827;53.024;6.596;2023-09-19T05:59:27;13.70;85.60
52963;DHT22;38827;53.024;6.596;2023-09-19T06:01:53;13.70;85.70
52963;DHT22;38827;53.024;6.596;2023-09-19T06:04:18;13.70;85.70
52963;DHT22;38827;53.024;6.596;2023-09-19T06:06:47;13.70;85.60
52963;DHT22;38827;53.024;6.596;2023-09-19T06:09:14;13.70;85.80
52963;DHT22;38827;53.024;6.596;2023-09-19T06:11:43;13.70;85.50
52963;DHT22;38827;53.024;6.596;2023-09-19T06:14:09;13.70;85.60
52963;DHT22;38827;53.024;6.596;2023-09-19T06:16:36;13.80;85.40
52963;DHT22;38827;53.024;6.596;2023-09-19T06:19:03;13.80;85.30
52963;DHT22;38827;53.024;6.596;2023-09-19T06:21:32;13.80;85.10
52963;DHT22;38827;53.024;6.596;2023-09-19T06:23:57;13.90;84.90
52963;DHT22;38827;53.024;6.596;2023-09-19T06:26:24;13.90;84.80
52963;DHT22;38827;53.024;6.596;2023-09-19T06:28:52;14.00;84.60
52963;DHT22;38827;53.024;6.596;2023-09-19T06:31:18;14.00;84.10
52963;DHT22;38827;53.024;6.596;2023-09-19T06:33:43;14.10;83.90
52963;DHT22;38827;53.024;6.596;2023-09-19T06:36:09;14.30;83.60
52963;DHT22;38827;53.024;6.596;2023-09-19T06:38:36;14.40;83.00
52963;DHT22;38827;53.024;6.596;2023-09-19T06:41:04;14.40;82.40
52963;DHT22;38827;53.024;6.596;2023-09-19T06:43:31;14.40;82.10
52963;DHT22;38827;53.024;6.596;2023-09-19T06:45:57;14.50;81.40
52963;DHT22;38827;53.024;6.596;2023-09-19T06:48:26;14.50;81.40
52963;DHT22;38827;53.024;6.596;2023-09-19T06:50:56;14.50;81.10
52963;DHT22;38827;53.024;6.596;2023-09-19T06:53:24;14.60;80.90
52963;DHT22;38827;53.024;6.596;2023-09-19T06:58:23;15.30;78.80
52963;DHT22;38827;53.024;6.596;2023-09-19T07:00:49;15.00;79.60
52963;DHT22;38827;53.024;6.596;2023-09-19T07:03:16;15.20;78.80
52963;DHT22;38827;53.024;6.596;2023-09-19T07:05:47;15.30;78.30
52963;DHT22;38827;53.024;6.596;2023-09-19T07:08:14;15.40;77.40
52963;DHT22;38827;53.024;6.596;2023-09-19T07:10:50;15.60;76.30
52963;DHT22;38827;53.024;6.596;2023-09-19T07:13:42;15.70;75.80
52963;DHT22;38827;53.024;6.596;2023-09-19T07:16:55;16.00;74.80
52963;DHT22;38827;53.024;6.596;2023-09-19T07:27:18;17.10;70.30
52963;DHT22;38827;53.024;6.596;2023-09-19T07:33:33;17.80;67.40
52963;DHT22;38827;53.024;6.596;2023-09-19T07:36:02;17.50;69.30
52963;DHT22;38827;53.024;6.596;2023-09-19T07:38:43;17.30;69.60
52963;DHT22;38827;53.024;6.596;2023-09-19T07:41:25;17.00;69.00
52963;DHT22;38827;53.024;6.596;2023-09-19T07:44:16;17.00;69.50
52963;DHT22;38827;53.024;6.596;2023-09-19T07:50:23;17.80;67.70
52963;DHT22;38827;53.024;6.596;2023-09-19T07:52:58;18.60;66.40
52963;DHT22;38827;53.024;6.596;2023-09-19T07:55:24;18.90;63.80
52963;DHT22;38827;53.024;6.596;2023-09-19T07:58:12;19.20;64.30
52963;DHT22;38827;53.024;6.596;2023-09-19T08:00:42;19.70;62.50
52963;DHT22;38827;53.024;6.596;2023-09-19T08:11:42;20.80;58.20
52963;DHT22;38827;53.024;6.596;2023-09-19T08:14:09;19.80;61.30
52963;DHT22;38827;53.024;6.596;2023-09-19T08:16:35;19.20;62.40
52963;DHT22;38827;53.024;6.596;2023-09-19T08:19:01;18.90;63.10
52963;DHT22;38827;53.024;6.596;2023-09-19T08:21:26;19.20;63.10
52963;DHT22;38827;53.024;6.596;2023-09-19T08:24:03;19.60;62.00
52963;DHT22;38827;53.024;6.596;2023-09-19T08:37:21;21.00;57.00
52963;DHT22;38827;53.024;6.596;2023-09-19T08:39:50;21.20;58.30
52963;DHT22;38827;53.024;6.596;2023-09-19T08:42:22;21.40;57.00
52963;DHT22;38827;53.024;6.596;2023-09-19T08:52:41;22.00;54.50
52963;DHT22;38827;53.024;6.596;2023-09-19T08:59:22;21.90;55.60
52963;DHT22;38827;53.024;6.596;2023-09-19T09:01:53;22.00;55.60
52963;DHT22;38827;53.024;6.596;2023-09-19T09:04:24;22.30;55.80
52963;DHT22;38827;53.024;6.596;2023-09-19T09:06:52;22.40;54.90
52963;DHT22;38827;53.024;6.596;2023-09-19T09:14:22;22.30;54.90
52963;DHT22;38827;53.024;6.596;2023-09-19T09:16:50;22.10;55.50
52963;DHT22;38827;53.024;6.596;2023-09-19T09:19:16;21.90;55.50
52963;DHT22;38827;53.024;6.596;2023-09-19T09:21:49;21.50;56.00
52963;DHT22;38827;53.024;6.596;2023-09-19T09:24:28;21.40;56.70
52963;DHT22;38827;53.024;6.596;2023-09-19T09:26:58;21.70;55.80
52963;DHT22;38827;53.024;6.596;2023-09-19T09:32:31;22.60;54.60
52963;DHT22;38827;53.024;6.596;2023-09-19T09:35:02;23.00;52.90
52963;DHT22;38827;53.024;6.596;2023-09-19T09:46:59;23.70;50.90
52963;DHT22;38827;53.024;6.596;2023-09-19T09:50:00;23.70;51.20
52963;DHT22;38827;53.024;6.596;2023-09-19T09:52:44;23.70;51.00
52963;DHT22;38827;53.024;6.596;2023-09-19T09:55:10;23.60;49.90
52963;DHT22;38827;53.024;6.596;2023-09-19T09:57:35;23.50;51.00
52963;DHT22;38827;53.024;6.596;2023-09-19T10:00:05;23.60;50.70
52963;DHT22;38827;53.024;6.596;2023-09-19T10:02:37;23.60;50.60
52963;DHT22;38827;53.024;6.596;2023-09-19T10:05:20;23.60;50.10
52963;DHT22;38827;53.024;6.596;2023-09-19T10:07:46;23.50;49.30
52963;DHT22;38827;53.024;6.596;2023-09-19T10:13:05;23.40;49.90
52963;DHT22;38827;53.024;6.596;2023-09-19T10:15:34;23.40;49.90
52963;DHT22;38827;53.024;6.596;2023-09-19T10:18:04;22.90;50.20
52963;DHT22;38827;53.024;6.596;2023-09-19T10:20:30;22.50;51.20
52963;DHT22;38827;53.024;6.596;2023-09-19T10:23:08;22.20;51.70
52963;DHT22;38827;53.024;6.596;2023-09-19T10:25:40;22.20;52.10
52963;DHT22;38827;53.024;6.596;2023-09-19T10:28:08;22.40;51.80
52963;DHT22;38827;53.024;6.596;2023-09-19T10:30:48;22.70;51.00
52963;DHT22;38827;53.024;6.596;2023-09-19T10:33:16;22.50;51.20
52963;DHT22;38827;53.024;6.596;2023-09-19T10:35:44;22.10;52.20
52963;DHT22;38827;53.024;6.596;2023-09-19T10:38:18;22.00;52.80
52963;DHT22;38827;53.024;6.596;2023-09-19T10:40:52;21.70;52.50
52963;DHT22;38827;53.024;6.596;2023-09-19T10:43:24;21.70;53.20
52963;DHT22;38827;53.024;6.596;2023-09-19T10:45:51;22.20;52.20
52963;DHT22;38827;53.024;6.596;2023-09-19T10:58:46;21.90;52.50
52963;DHT22;38827;53.024;6.596;2023-09-19T11:01:12;22.40;51.80
52963;DHT22;38827;53.024;6.596;2023-09-19T11:03:38;22.90;50.70
52963;DHT22;38827;53.024;6.596;2023-09-19T11:06:15;23.30;50.10
52963;DHT22;38827;53.024;6.596;2023-09-19T11:11:46;23.20;49.70
52963;DHT22;38827;53.024;6.596;2023-09-19T11:30:41;21.00;53.70
52963;DHT22;38827;53.024;6.596;2023-09-19T11:33:29;21.40;53.30
52963;DHT22;38827;53.024;6.596;2023-09-19T11:46:32;21.80;52.50
52963;DHT22;38827;53.024;6.596;2023-09-19T11:49:09;21.90;52.90
52963;DHT22;38827;53.024;6.596;2023-09-19T11:51:41;22.20;51.70
52963;DHT22;38827;53.024;6.596;2023-09-19T11:54:11;22.20;52.10
52963;DHT22;38827;53.024;6.596;2023-09-19T11:56:45;22.20;52.30
52963;DHT22;38827;53.024;6.596;2023-09-19T11:59:11;22.00;52.40
52963;DHT22;38827;53.024;6.596;2023-09-19T12:01:40;21.70;52.80
52963;DHT22;38827;53.024;6.596;2023-09-19T12:04:11;21.60;53.00
52963;DHT22;38827;53.024;6.596;2023-09-19T12:06:37;21.30;53.40
52963;DHT22;38827;53.024;6.596;2023-09-19T12:09:12;21.00;54.10
52963;DHT22;38827;53.024;6.596;2023-09-19T12:11:53;20.70;54.50
52963;DHT22;38827;53.024;6.596;2023-09-19T12:14:23;20.50;54.90
52963;DHT22;38827;53.024;6.596;2023-09-19T12:16:55;20.30;55.50
52963;DHT22;38827;53.024;6.596;2023-09-19T12:19:22;20.10;56.20
52963;DHT22;38827;53.024;6.596;2023-09-19T12:24:24;19.90;56.70
52963;DHT22;38827;53.024;6.596;2023-09-19T12:26:52;19.70;57.00
52963;DHT22;38827;53.024;6.596;2023-09-19T12:29:20;19.50;57.70
52963;DHT22;38827;53.024;6.596;2023-09-19T12:31:55;19.40;57.90
52963;DHT22;38827;53.024;6.596;2023-09-19T12:34:29;19.30;58.80
52963;DHT22;38827;53.024;6.596;2023-09-19T12:39:41;19.20;58.90
52963;DHT22;38827;53.024;6.596;2023-09-19T12:42:11;19.20;59.20
52963;DHT22;38827;53.024;6.596;2023-09-19T12:52:37;19.90;58.20
52963;DHT22;38827;53.024;6.596;2023-09-19T12:55:29;19.90;57.50
52963;DHT22;38827;53.024;6.596;2023-09-19T12:58:01;19.70;58.10
52963;DHT22;38827;53.024;6.596;2023-09-19T13:00:41;19.60;58.60
52963;DHT22;38827;53.024;6.596;2023-09-19T13:03:18;19.40;58.90
52963;DHT22;38827;53.024;6.596;2023-09-19T13:05:58;19.30;59.00
52963;DHT22;38827;53.024;6.596;2023-09-19T13:08:31;19.20;59.50
52963;DHT22;38827;53.024;6.596;2023-09-19T13:11:13;19.10;60.00
52963;DHT22;38827;53.024;6.596;2023-09-19T13:17:08;19.00;60.40
52963;DHT22;38827;53.024;6.596;2023-09-19T13:32:49;18.90;61.20
52963;DHT22;38827;53.024;6.596;2023-09-19T13:35:25;18.90;61.40
52963;DHT22;38827;53.024;6.596;2023-09-19T13:37:50;18.90;61.50
52963;DHT22;38827;53.024;6.596;2023-09-19T13:40:17;18.80;61.80
52963;DHT22;38827;53.024;6.596;2023-09-19T13:42:43;18.80;61.90
52963;DHT22;38827;53.024;6.596;2023-09-19T13:45:09;18.80;61.90
52963;DHT22;38827;53.024;6.596;2023-09-19T13:47:42;18.80;61.70
52963;DHT22;38827;53.024;6.596;2023-09-19T13:50:09;18.80;61.90
52963;DHT22;38827;53.024;6.596;2023-09-19T13:52:35;18.80;62.10
52963;DHT22;38827;53.024;6.596;2023-09-19T13:55:01;18.70;62.40
52963;DHT22;38827;53.024;6.596;2023-09-19T13:57:32;18.60;62.80
52963;DHT22;38827;53.024;6.596;2023-09-19T14:18:53;19.00;62.60
52963;DHT22;38827;53.024;6.596;2023-09-19T14:21:41;18.90;62.60
52963;DHT22;38827;53.024;6.596;2023-09-19T14:24:40;18.90;62.60
52963;DHT22;38827;53.024;6.596;2023-09-19T14:34:48;18.90;62.80
52963;DHT22;38827;53.024;6.596;2023-09-19T14:37:14;19.00;62.40
52963;DHT22;38827;53.024;6.596;2023-09-19T14:47:12;19.00;62.30
52963;DHT22;38827;53.024;6.596;2023-09-19T14:53:41;19.00;62.60
52963;DHT22;38827;53.024;6.596;2023-09-19T14:56:31;18.90;62.60
52963;DHT22;38827;53.024;6.596;2023-09-19T14:59:14;18.90;62.60
52963;DHT22;38827;53.024;6.596;2023-09-19T15:02:16;18.90;62.80
52963;DHT22;38827;53.024;6.596;2023-09-19T15:04:42;18.90;62.90
52963;DHT22;38827;53.024;6.596;2023-09-19T15:07:28;18.80;63.10
52963;DHT22;38827;53.024;6.596;2023-09-19T15:10:09;18.80;63.30
52963;DHT22;38827;53.024;6.596;2023-09-19T15:12:38;18.80;63.90
52963;DHT22;38827;53.024;6.596;2023-09-19T15:15:16;18.70;63.90
52963;DHT22;38827;53.024;6.596;2023-09-19T15:17:53;18.70;64.10
52963;DHT22;38827;53.024;6.596;2023-09-19T15:20:46;18.70;64.50
52963;DHT22;38827;53.024;6.596;2023-09-19T15:33:53;18.10;68.60
52963;DHT22;38827;53.024;6.596;2023-09-19T15:46:57;17.80;69.60
52963;DHT22;38827;53.024;6.596;2023-09-19T15:49:29;17.80;69.40
52963;DHT22;38827;53.024;6.596;2023-09-19T15:55:06;17.80;69.50
52963;DHT22;38827;53.024;6.596;2023-09-19T15:57:32;17.80;70.50
52963;DHT22;38827;53.024;6.596;2023-09-19T16:00:04;17.70;70.00
52963;DHT22;38827;53.024;6.596;2023-09-19T16:02:53;17.70;71.10
52963;DHT22;38827;53.024;6.596;2023-09-19T16:14:23;17.70;70.40
52963;DHT22;38827;53.024;6.596;2023-09-19T16:20:21;17.70;71.90
52963;DHT22;38827;53.024;6.596;2023-09-19T16:23:39;17.60;71.90
52963;DHT22;38827;53.024;6.596;2023-09-19T16:26:17;17.50;74.30
52963;DHT22;38827;53.024;6.596;2023-09-19T16:28:47;17.50;73.80
52963;DHT22;38827;53.024;6.596;2023-09-19T16:31:13;17.40;74.30
52963;DHT22;38827;53.024;6.596;2023-09-19T16:33:41;17.40;74.80
52963;DHT22;38827;53.024;6.596;2023-09-19T16:36:08;17.30;75.30
52963;DHT22;38827;53.024;6.596;2023-09-19T16:38:34;17.20;75.80
52963;DHT22;38827;53.024;6.596;2023-09-19T16:41:01;17.10;76.60
52963;DHT22;38827;53.024;6.596;2023-09-19T16:43:28;17.00;76.80
52963;DHT22;38827;53.024;6.596;2023-09-19T16:45:59;17.00;77.30
52963;DHT22;38827;53.024;6.596;2023-09-19T16:48:26;16.90;77.60
52963;DHT22;38827;53.024;6.596;2023-09-19T16:51:00;16.80;77.80
52963;DHT22;38827;53.024;6.596;2023-09-19T16:53:32;16.80;77.90
52963;DHT22;38827;53.024;6.596;2023-09-19T16:56:10;16.80;78.00
52963;DHT22;38827;53.024;6.596;2023-09-19T16:58:43;16.80;78.10
52963;DHT22;38827;53.024;6.596;2023-09-19T17:01:14;16.70;78.30
52963;DHT22;38827;53.024;6.596;2023-09-19T17:03:59;16.70;78.30
52963;DHT22;38827;53.024;6.596;2023-09-19T17:06:31;16.70;78.10
52963;DHT22;38827;53.024;6.596;2023-09-19T17:08:57;16.70;79.30
52963;DHT22;38827;53.024;6.596;2023-09-19T17:11:22;16.70;78.00
52963;DHT22;38827;53.024;6.596;2023-09-19T17:13:51;16.70;78.30
52963;DHT22;38827;53.024;6.596;2023-09-19T17:16:22;16.70;78.40
52963;DHT22;38827;53.024;6.596;2023-09-19T17:18:55;16.70;78.60
52963;DHT22;38827;53.024;6.596;2023-09-19T17:21:23;16.60;78.70
52963;DHT22;38827;53.024;6.596;2023-09-19T17:24:05;16.70;78.70
52963;DHT22;38827;53.024;6.596;2023-09-19T17:26:33;16.60;78.60
52963;DHT22;38827;53.024;6.596;2023-09-19T17:31:36;16.70;78.60
52963;DHT22;38827;53.024;6.596;2023-09-19T17:34:04;16.70;78.60
52963;DHT22;38827;53.024;6.596;2023-09-19T17:36:29;16.70;78.40
52963;DHT22;38827;53.024;6.596;2023-09-19T17:38:57;16.70;78.20
52963;DHT22;38827;53.024;6.596;2023-09-19T17:41:24;16.70;78.20
52963;DHT22;38827;53.024;6.596;2023-09-19T17:43:55;16.60;78.20
52963;DHT22;38827;53.024;6.596;2023-09-19T17:46:22;16.70;78.20
52963;DHT22;38827;53.024;6.596;2023-09-19T17:48:56;16.70;78.30
52963;DHT22;38827;53.024;6.596;2023-09-19T17:51:21;16.60;78.40
52963;DHT22;38827;53.024;6.596;2023-09-19T17:53:57;16.60;78.50
52963;DHT22;38827;53.024;6.596;2023-09-19T18:03:58;16.60;78.90
52963;DHT22;38827;53.024;6.596;2023-09-19T18:13:17;16.50;79.30
52963;DHT22;38827;53.024;6.596;2023-09-19T18:15:46;16.50;79.70
52963;DHT22;38827;53.024;6.596;2023-09-19T18:18:13;16.40;79.70
52963;DHT22;38827;53.024;6.596;2023-09-19T18:24:11;16.40;80.20
52963;DHT22;38827;53.024;6.596;2023-09-19T18:27:02;16.40;80.40
52963;DHT22;38827;53.024;6.596;2023-09-19T18:30:18;16.40;80.70
52963;DHT22;38827;53.024;6.596;2023-09-19T18:32:44;16.40;80.80
52963;DHT22;38827;53.024;6.596;2023-09-19T18:35:11;16.30;81.10
52963;DHT22;38827;53.024;6.596;2023-09-19T18:37:52;16.30;81.30
52963;DHT22;38827;53.024;6.596;2023-09-19T18:41:16;16.30;81.40
52963;DHT22;38827;53.024;6.596;2023-09-19T18:47:59;16.20;82.70
52963;DHT22;38827;53.024;6.596;2023-09-19T18:55:41;16.20;82.60
52963;DHT22;38827;53.024;6.596;2023-09-19T18:58:19;16.20;82.60
52963;DHT22;38827;53.024;6.596;2023-09-19T19:01:04;16.20;82.70
52963;DHT22;38827;53.024;6.596;2023-09-19T19:03:42;16.10;83.50
52963;DHT22;38827;53.024;6.596;2023-09-19T19:07:09;16.10;83.10
52963;DHT22;38827;53.024;6.596;2023-09-19T19:10:29;16.10;83.40
52963;DHT22;38827;53.024;6.596;2023-09-19T19:16:50;16.10;83.60
52963;DHT22;38827;53.024;6.596;2023-09-19T19:19:44;16.00;83.90
52963;DHT22;38827;53.024;6.596;2023-09-19T19:33:52;16.00;83.90
52963;DHT22;38827;53.024;6.596;2023-09-19T19:39:39;16.00;84.10
52963;DHT22;38827;53.024;6.596;2023-09-19T19:42:09;16.00;84.20
52963;DHT22;38827;53.024;6.596;2023-09-19T20:37:28;16.00;85.20
52963;DHT22;38827;53.024;6.596;2023-09-19T21:12:53;16.10;85.50
52963;DHT22;38827;53.024;6.596;2023-09-19T21:15:28;16.10;85.60
52963;DHT22;38827;53.024;6.596;2023-09-19T21:18:03;16.10;85.20
52963;DHT22;38827;53.024;6.596;2023-09-19T21:20:39;16.20;85.50
52963;DHT22;38827;53.024;6.596;2023-09-19T21:27:04;16.20;85.00
52963;DHT22;38827;53.024;6.596;2023-09-19T21:49:24;16.30;84.40
52963;DHT22;38827;53.024;6.596;2023-09-19T21:58:09;16.30;84.20
52963;DHT22;38827;53.024;6.596;2023-09-19T22:00:41;16.30;84.50
52963;DHT22;38827;53.024;6.596;2023-09-19T22:10:55;16.40;84.00
52963;DHT22;38827;53.024;6.596;2023-09-19T22:13:45;16.40;83.80
52963;DHT22;38827;53.024;6.596;2023-09-19T22:16:13;16.40;83.80
52963;DHT22;38827;53.024;6.596;2023-09-19T22:18:58;16.40;83.80
52963;DHT22;38827;53.024;6.596;2023-09-19T22:21:29;16.40;83.60
52963;DHT22;38827;53.024;6.596;2023-09-19T22:24:25;16.50;83.60
52963;DHT22;38827;53.024;6.596;2023-09-19T22:27:18;16.50;83.60
52963;DHT22;38827;53.024;6.596;2023-09-19T22:30:09;16.50;83.30
52963;DHT22;38827;53.024;6.596;2023-09-19T22:39:51;16.60;83.00
52963;DHT22;38827;53.024;6.596;2023-09-19T22:42:17;16.60;83.00
52963;DHT22;38827;53.024;6.596;2023-09-19T23:07:07;16.60;82.70
52963;DHT22;38827;53.024;6.596;2023-09-19T23:09:34;16.60;82.90
52963;DHT22;38827;53.024;6.596;2023-09-19T23:28:02;16.50;83.90
52963;DHT22;38827;53.024;6.596;2023-09-19T23:30:59;16.40;84.10
52963;DHT22;38827;53.024;6.596;2023-09-19T23:33:31;16.40;84.00
52963;DHT22;38827;53.024;6.596;2023-09-19T23:36:34;16.50;84.00
52963;DHT22;38827;53.024;6.596;2023-09-19T23:39:05;16.50;84.00
52963;DHT22;38827;53.024;6.596;2023-09-19T23:41:57;16.50;84.10
52963;DHT22;38827;53.024;6.596;2023-09-19T23:44:23;16.50;84.20